createdAt,value
2019-02-22T00:00:15.248Z,931.25
2019-02-22T00:01:15.183Z,931.28
2019-02-22T00:02:15.136Z,931.36
2019-02-22T00:03:15.110Z,931.36
2019-02-22T00:04:15.078Z,931.41
2019-02-22T00:05:14.999Z,931.45
2019-02-22T00:06:14.990Z,931.42
2019-02-22T00:07:14.940Z,931.38
2019-02-22T00:08:14.894Z,931.40
2019-02-22T00:09:14.849Z,931.43
2019-02-22T00:10:14.784Z,931.39
2019-02-22T00:11:14.750Z,931.38
2019-02-22T00:12:14.692Z,931.41
2019-02-22T00:13:14.636Z,931.41
2019-02-22T00:14:14.589Z,931.44
2019-02-22T00:15:14.577Z,931.44
2019-02-22T00:16:14.520Z,931.45
2019-02-22T00:17:14.473Z,931.50
2019-02-22T00:18:14.410Z,931.51
2019-02-22T00:19:14.376Z,931.56
2019-02-22T00:20:14.337Z,931.56
2019-02-22T00:21:14.271Z,931.52
2019-02-22T00:22:14.257Z,931.53
2019-02-22T00:23:14.201Z,931.55
2019-02-22T00:24:14.134Z,931.55
2019-02-22T00:25:14.111Z,931.58
2019-02-22T00:26:14.077Z,931.59
2019-02-22T00:27:14.032Z,931.58
2019-02-22T00:28:13.953Z,931.58
2019-02-22T00:29:13.939Z,931.60
2019-02-22T00:30:13.863Z,931.56
2019-02-22T00:31:13.850Z,931.54
2019-02-22T00:32:13.771Z,931.55
2019-02-22T00:33:13.725Z,931.56
2019-02-22T00:34:13.719Z,931.54
2019-02-22T00:35:13.690Z,931.51
2019-02-22T00:36:14.096Z,931.54
2019-02-22T00:37:13.588Z,931.49
2019-02-22T00:38:13.519Z,931.51
2019-02-22T00:39:13.452Z,931.48
2019-02-22T00:40:13.439Z,931.50
2019-02-22T00:41:13.361Z,931.50
2019-02-22T00:42:13.348Z,931.53
2019-02-22T00:43:13.282Z,931.54
2019-02-22T00:44:13.252Z,931.57
2019-02-22T00:45:13.200Z,931.59
2019-02-22T00:46:13.134Z,931.55
2019-02-22T00:47:13.121Z,931.54
2019-02-22T00:48:13.050Z,931.53
2019-02-22T00:49:13.010Z,931.56
2019-02-22T00:50:12.972Z,931.51
2019-02-22T00:51:12.939Z,931.52
2019-02-22T00:52:12.878Z,931.56
2019-02-22T00:53:12.848Z,931.49
2019-02-22T00:54:12.791Z,931.54
2019-02-22T00:55:12.726Z,931.58
2019-02-22T00:56:12.712Z,931.58
2019-02-22T00:57:12.655Z,931.63
2019-02-22T00:58:12.621Z,931.65
2019-02-22T00:59:12.555Z,931.65
2019-02-22T01:00:12.530Z,931.66
2019-02-22T01:01:12.472Z,931.67
2019-02-22T01:02:12.407Z,931.61
2019-02-22T01:03:12.361Z,931.64
2019-02-22T01:04:12.327Z,931.64
2019-02-22T01:05:12.301Z,931.67
2019-02-22T01:06:12.245Z,931.70
2019-02-22T01:07:12.179Z,931.65
2019-02-22T01:08:12.135Z,931.66
2019-02-22T01:09:12.109Z,931.69
2019-02-22T01:10:12.063Z,931.71
2019-02-22T01:11:12.014Z,931.71
2019-02-22T01:12:11.952Z,931.73
2019-02-22T01:13:11.939Z,931.73
2019-02-22T01:14:11.887Z,931.69
2019-02-22T01:15:11.965Z,931.70
2019-02-22T01:16:11.790Z,931.72
2019-02-22T01:17:11.772Z,931.71
2019-02-22T01:18:11.691Z,931.76
2019-02-22T01:19:11.667Z,931.78
2019-02-22T01:20:11.599Z,931.76
2019-02-22T01:21:11.554Z,931.78
2019-02-22T01:22:11.508Z,931.80
2019-02-22T01:23:11.484Z,931.85
2019-02-22T01:24:11.438Z,931.86
2019-02-22T01:25:11.393Z,931.86
2019-02-22T01:26:11.327Z,931.84
2019-02-22T01:27:11.301Z,931.89
2019-02-22T01:28:11.236Z,931.86
2019-02-22T01:29:11.212Z,931.84
2019-02-22T01:30:11.154Z,931.92
2019-02-22T01:31:11.091Z,931.93
2019-02-22T01:32:11.075Z,931.95
2019-02-22T01:33:10.996Z,931.98
2019-02-22T01:34:10.983Z,932.01
2019-02-22T01:35:10.939Z,931.98
2019-02-22T01:36:10.860Z,932.00
2019-02-22T01:37:10.847Z,932.05
2019-02-22T01:38:10.801Z,932.00
2019-02-22T01:39:10.959Z,932.01
2019-02-22T01:40:10.711Z,931.98
2019-02-22T01:41:10.653Z,931.98
2019-02-22T01:42:10.607Z,931.96
2019-02-22T01:43:10.542Z,931.94
2019-02-22T01:44:10.528Z,931.93
2019-02-22T01:45:10.471Z,931.95
2019-02-22T01:46:10.404Z,932.00
2019-02-22T01:47:10.360Z,931.95
2019-02-22T01:48:10.325Z,931.90
2019-02-22T01:49:10.300Z,931.98
2019-02-22T01:50:10.255Z,931.94
2019-02-22T01:51:10.199Z,931.95
2019-02-22T01:52:10.132Z,931.95
2019-02-22T01:53:10.086Z,931.92
2019-02-22T01:54:10.073Z,931.91
2019-02-22T01:55:10.027Z,931.84
2019-02-22T01:56:09.982Z,931.89
2019-02-22T01:57:09.938Z,931.86
2019-02-22T01:58:09.891Z,931.87
2019-02-22T01:59:09.845Z,931.88
2019-02-22T02:00:09.798Z,931.88
2019-02-22T02:01:09.723Z,931.92
2019-02-22T02:02:09.707Z,931.92
2019-02-22T02:03:09.662Z,931.92
2019-02-22T02:04:09.584Z,931.93
2019-02-22T02:05:09.571Z,931.88
2019-02-22T02:06:09.527Z,931.90
2019-02-22T02:07:09.447Z,931.91
2019-02-22T02:08:09.434Z,931.90
2019-02-22T02:09:09.376Z,931.87
2019-02-22T02:10:09.322Z,931.85
2019-02-22T02:11:09.277Z,931.88
2019-02-22T02:12:09.252Z,931.85
2019-02-22T02:13:09.185Z,931.84
2019-02-22T02:14:09.127Z,931.85
2019-02-22T02:15:09.083Z,931.82
2019-02-22T02:16:09.036Z,931.84
2019-02-22T02:17:08.990Z,931.82
2019-02-22T02:18:09.017Z,931.82
2019-02-22T02:19:08.931Z,931.81
2019-02-22T02:20:08.900Z,931.79
2019-02-22T02:21:08.832Z,931.81
2019-02-22T02:22:08.795Z,931.76
2019-02-22T02:23:08.739Z,931.73
2019-02-22T02:24:08.704Z,931.76
2019-02-22T02:25:08.637Z,931.72
2019-02-22T02:26:08.580Z,931.71
2019-02-22T02:27:08.566Z,931.71
2019-02-22T02:28:08.522Z,931.66
2019-02-22T02:29:08.464Z,931.64
2019-02-22T02:30:08.466Z,931.63
2019-02-22T02:31:08.364Z,931.62
2019-02-22T02:32:08.321Z,931.58
2019-02-22T02:33:08.273Z,931.52
2019-02-22T02:34:08.247Z,931.51
2019-02-22T02:35:08.182Z,931.47
2019-02-22T02:36:08.124Z,931.44
2019-02-22T02:37:08.090Z,931.45
2019-02-22T02:38:08.056Z,931.41
2019-02-22T02:39:08.007Z,931.41
2019-02-22T02:40:07.943Z,931.37
2019-02-22T02:41:11.204Z,931.34
2019-02-22T02:42:07.861Z,931.31
2019-02-22T02:43:07.804Z,931.32
2019-02-22T02:44:07.792Z,931.28
2019-02-22T02:45:07.733Z,931.29
2019-02-22T02:46:07.687Z,931.25
2019-02-22T02:47:07.633Z,931.24
2019-02-22T02:48:07.598Z,931.26
2019-02-22T02:49:07.553Z,931.25
2019-02-22T02:50:07.505Z,931.26
2019-02-22T02:51:07.459Z,931.28
2019-02-22T02:52:07.404Z,931.26
2019-02-22T02:53:07.387Z,931.29
2019-02-22T02:54:07.306Z,931.29
2019-02-22T02:55:07.267Z,931.29
2019-02-22T02:56:07.210Z,931.30
2019-02-22T02:57:07.196Z,931.30
2019-02-22T02:58:07.120Z,931.27
2019-02-22T02:59:07.084Z,931.27
2019-02-22T03:00:07.029Z,931.28
2019-02-22T03:01:07.002Z,931.32
2019-02-22T03:02:06.956Z,931.31
2019-02-22T03:03:06.891Z,931.35
2019-02-22T03:04:06.865Z,931.34
2019-02-22T03:05:06.811Z,931.34
2019-02-22T03:06:06.766Z,931.36
2019-02-22T03:07:06.734Z,931.33
2019-02-22T03:08:06.684Z,931.31
2019-02-22T03:09:06.636Z,931.30
2019-02-22T03:10:06.581Z,931.31
2019-02-22T03:11:06.542Z,931.39
2019-02-22T03:12:06.500Z,931.35
2019-02-22T03:13:06.465Z,931.34
2019-02-22T03:14:06.399Z,931.32
2019-02-22T03:15:06.363Z,931.29
2019-02-22T03:16:06.407Z,931.33
2019-02-22T03:17:06.250Z,931.34
2019-02-22T03:18:06.204Z,931.30
2019-02-22T03:19:06.159Z,931.27
2019-02-22T03:20:06.147Z,931.30
2019-02-22T03:21:06.080Z,931.26
2019-02-22T03:22:06.033Z,931.26
2019-02-22T03:23:06.007Z,931.25
2019-02-22T03:24:05.946Z,931.24
2019-02-22T03:25:05.916Z,931.19
2019-02-22T03:26:05.845Z,931.18
2019-02-22T03:27:05.793Z,931.18
2019-02-22T03:28:05.780Z,931.17
2019-02-22T03:29:05.735Z,931.17
2019-02-22T03:30:05.698Z,931.15
2019-02-22T03:31:05.663Z,931.21
2019-02-22T03:32:05.587Z,931.21
2019-02-22T03:33:05.539Z,931.19
2019-02-22T03:34:05.478Z,931.21
2019-02-22T03:35:05.450Z,931.18
2019-02-22T03:36:05.395Z,931.20
2019-02-22T03:37:05.337Z,931.15
2019-02-22T03:38:06.035Z,931.16
2019-02-22T03:39:05.270Z,931.14
2019-02-22T03:40:05.201Z,931.08
2019-02-22T03:41:05.159Z,931.04
2019-02-22T03:42:05.150Z,931.07
2019-02-22T03:43:05.096Z,930.97
2019-02-22T03:44:05.016Z,930.97
2019-02-22T03:45:04.971Z,930.95
2019-02-22T03:46:04.956Z,930.94
2019-02-22T03:47:04.900Z,930.90
2019-02-22T03:48:04.836Z,930.91
2019-02-22T03:49:04.821Z,930.94
2019-02-22T03:50:04.771Z,930.94
2019-02-22T03:51:04.697Z,930.96
2019-02-22T03:52:04.671Z,930.99
2019-02-22T03:53:04.626Z,930.95
2019-02-22T03:54:04.591Z,930.98
2019-02-22T03:55:04.525Z,931.00
2019-02-22T03:56:04.471Z,930.95
2019-02-22T03:57:04.422Z,930.95
2019-02-22T03:58:04.377Z,930.97
2019-02-22T03:59:04.364Z,930.91
2019-02-22T04:00:04.429Z,930.91
2019-02-22T04:01:04.251Z,930.88
2019-02-22T04:02:04.218Z,930.88
2019-02-22T04:03:04.180Z,930.93
2019-02-22T04:04:04.103Z,930.92
2019-02-22T04:05:04.069Z,930.94
2019-02-22T04:06:04.046Z,930.93
2019-02-22T04:07:04.179Z,930.92
2019-02-22T04:08:03.921Z,930.96
2019-02-22T04:09:03.895Z,930.96
2019-02-22T04:10:03.840Z,930.96
2019-02-22T04:11:03.803Z,930.94
2019-02-22T04:12:03.778Z,930.97
2019-02-22T04:13:03.724Z,931.00
2019-02-22T04:14:03.677Z,930.98
2019-02-22T04:15:03.614Z,930.99
2019-02-22T04:16:03.616Z,930.99
2019-02-22T04:17:03.529Z,930.93
2019-02-22T04:18:03.487Z,930.89
2019-02-22T04:19:03.450Z,930.87
2019-02-22T04:20:03.403Z,930.82
2019-02-22T04:21:03.362Z,930.82
2019-02-22T04:22:03.308Z,930.83
2019-02-22T04:23:03.233Z,930.79
2019-02-22T04:24:03.208Z,930.81
2019-02-22T04:25:03.143Z,930.82
2019-02-22T04:26:03.129Z,930.80
2019-02-22T04:27:03.284Z,930.80
2019-02-22T04:28:03.027Z,930.82
2019-02-22T04:29:02.971Z,930.80
2019-02-22T04:30:02.922Z,930.78
2019-02-22T04:31:02.888Z,930.85
2019-02-22T04:32:02.833Z,930.82
2019-02-22T04:33:02.797Z,930.81
2019-02-22T04:34:02.731Z,930.79
2019-02-22T04:35:02.716Z,930.80
2019-02-22T04:36:02.681Z,930.78
2019-02-22T04:37:02.607Z,930.79
2019-02-22T04:38:02.569Z,930.74
2019-02-22T04:39:02.522Z,930.77
2019-02-22T04:40:02.478Z,930.75
2019-02-22T04:41:02.453Z,930.69
2019-02-22T04:42:02.377Z,930.75
2019-02-22T04:43:02.350Z,930.66
2019-02-22T04:44:02.273Z,930.71
2019-02-22T04:45:02.239Z,930.69
2019-02-22T04:46:02.183Z,930.71
2019-02-22T04:47:02.169Z,930.70
2019-02-22T04:48:02.123Z,930.72
2019-02-22T04:49:02.044Z,930.74
2019-02-22T04:50:02.001Z,930.70
2019-02-22T04:51:01.988Z,930.67
2019-02-22T04:52:01.940Z,930.65
2019-02-22T04:53:01.882Z,930.64
2019-02-22T04:54:01.836Z,930.61
2019-02-22T04:55:01.798Z,930.60
2019-02-22T04:56:01.756Z,930.60
2019-02-22T04:57:01.690Z,930.58
2019-02-22T04:58:01.633Z,930.56
2019-02-22T04:59:01.600Z,930.47
2019-02-22T05:00:01.541Z,930.49
2019-02-22T05:01:01.509Z,930.40
2019-02-22T05:02:01.556Z,930.43
2019-02-22T05:03:01.404Z,930.40
2019-02-22T05:04:01.379Z,930.39
2019-02-22T05:05:01.295Z,930.38
2019-02-22T05:06:01.302Z,930.40
2019-02-22T05:07:01.235Z,930.37
2019-02-22T05:08:01.176Z,930.32
2019-02-22T05:09:01.142Z,930.33
2019-02-22T05:10:01.085Z,930.32
2019-02-22T05:11:01.040Z,930.25
2019-02-22T05:12:10.466Z,930.26
2019-02-22T05:13:00.958Z,930.27
2019-02-22T05:14:00.902Z,930.22
2019-02-22T05:15:11.739Z,930.26
2019-02-22T05:16:00.842Z,930.29
2019-02-22T05:17:00.777Z,930.29
2019-02-22T05:18:00.720Z,930.27
2019-02-22T05:19:00.674Z,930.24
2019-02-22T05:20:00.661Z,930.28
2019-02-22T05:21:00.785Z,930.29
2019-02-22T05:22:00.583Z,930.31
2019-02-22T05:23:04.335Z,930.33
2019-02-22T05:24:00.444Z,930.31
2019-02-22T05:25:00.576Z,930.31
2019-02-22T05:26:00.353Z,930.32
2019-02-22T05:27:00.348Z,930.28
2019-02-22T05:28:00.293Z,930.30
2019-02-22T05:29:00.217Z,930.33
2019-02-22T05:30:00.312Z,930.35
2019-02-22T05:31:00.154Z,930.31
2019-02-22T05:32:00.084Z,930.34
2019-02-22T05:33:00.057Z,930.29
2019-02-22T05:34:00.009Z,930.30
2019-02-22T05:34:59.943Z,930.22
2019-02-22T05:35:59.897Z,930.21
2019-02-22T05:36:59.883Z,930.18
2019-02-22T05:37:59.818Z,930.16
2019-02-22T05:38:59.796Z,930.19
2019-02-22T05:39:59.714Z,930.17
2019-02-22T05:40:59.680Z,930.19
2019-02-22T05:41:59.626Z,930.22
2019-02-22T05:42:59.609Z,930.20
2019-02-22T05:43:59.552Z,930.21
2019-02-22T05:44:59.509Z,930.21
2019-02-22T05:45:59.441Z,930.18
2019-02-22T05:47:00.626Z,930.19
2019-02-22T05:47:59.410Z,930.15
2019-02-22T05:48:59.315Z,930.16
2019-02-22T05:49:59.291Z,930.16
2019-02-22T05:50:59.233Z,930.16
2019-02-22T05:51:59.166Z,930.16
2019-02-22T05:52:59.135Z,930.17
2019-02-22T05:53:59.107Z,930.17
2019-02-22T05:54:59.045Z,930.17
2019-02-22T05:55:59.014Z,930.17
2019-02-22T05:56:58.951Z,930.18
2019-02-22T05:57:58.894Z,930.21
2019-02-22T05:58:58.859Z,930.20
2019-02-22T05:59:58.826Z,930.17
2019-02-22T06:00:58.795Z,930.20
2019-02-22T06:01:58.713Z,930.15
2019-02-22T06:02:58.692Z,930.17
2019-02-22T06:03:58.630Z,930.15
2019-02-22T06:04:58.586Z,930.13
2019-02-22T06:05:58.561Z,930.12
2019-02-22T06:06:58.515Z,930.13
2019-02-22T06:07:58.468Z,930.17
2019-02-22T06:08:58.403Z,930.20
2019-02-22T06:09:58.345Z,930.22
2019-02-22T06:10:58.333Z,930.20
2019-02-22T06:11:58.274Z,930.24
2019-02-22T06:12:58.228Z,930.23
2019-02-22T06:13:58.194Z,930.20
2019-02-22T06:14:58.116Z,930.14
2019-02-22T06:15:58.071Z,930.17
2019-02-22T06:16:58.025Z,930.21
2019-02-22T06:17:58.001Z,930.17
2019-02-22T06:18:57.945Z,930.19
2019-02-22T06:19:57.888Z,930.22
2019-02-22T06:20:57.854Z,930.23
2019-02-22T06:21:57.831Z,930.20
2019-02-22T06:22:57.751Z,930.27
2019-02-22T06:23:57.738Z,930.22
2019-02-22T06:24:57.680Z,930.20
2019-02-22T06:25:57.647Z,930.22
2019-02-22T06:26:57.600Z,930.28
2019-02-22T06:27:57.543Z,930.24
2019-02-22T06:28:57.493Z,930.27
2019-02-22T06:29:57.463Z,930.25
2019-02-22T06:30:57.385Z,930.28
2019-02-22T06:31:57.376Z,930.24
2019-02-22T06:32:57.315Z,930.29
2019-02-22T06:33:57.268Z,930.28
2019-02-22T06:34:57.202Z,930.29
2019-02-22T06:35:57.181Z,930.26
2019-02-22T06:37:01.650Z,930.25
2019-02-22T06:37:57.098Z,930.23
2019-02-22T06:38:57.031Z,930.21
2019-02-22T06:39:56.995Z,930.15
2019-02-22T06:40:56.942Z,930.12
2019-02-22T06:41:56.882Z,930.10
2019-02-22T06:42:56.869Z,930.11
2019-02-22T06:43:56.812Z,930.14
2019-02-22T06:44:56.766Z,930.17
2019-02-22T06:45:56.732Z,930.14
2019-02-22T06:46:56.674Z,930.14
2019-02-22T06:47:56.640Z,930.17
2019-02-22T06:48:56.563Z,930.13
2019-02-22T06:49:56.539Z,930.18
2019-02-22T06:50:56.503Z,930.23
2019-02-22T06:51:56.436Z,930.24
2019-02-22T06:52:56.391Z,930.29
2019-02-22T06:53:56.354Z,930.32
2019-02-22T06:54:56.299Z,930.39
2019-02-22T06:55:56.254Z,930.39
2019-02-22T06:56:56.197Z,930.36
2019-02-22T06:57:56.151Z,930.38
2019-02-22T06:58:56.138Z,930.37
2019-02-22T06:59:56.071Z,930.40
2019-02-22T07:00:56.046Z,930.36
2019-02-22T07:01:55.968Z,930.37
2019-02-22T07:02:55.926Z,930.37
2019-02-22T07:03:55.897Z,930.36
2019-02-22T07:04:55.830Z,930.37
2019-02-22T07:05:55.796Z,930.37
2019-02-22T07:06:55.764Z,930.41
2019-02-22T07:07:56.936Z,930.37
2019-02-22T07:08:55.679Z,930.37
2019-02-22T07:09:55.615Z,930.39
2019-02-22T07:10:55.567Z,930.39
2019-02-22T07:11:55.524Z,930.40
2019-02-22T07:12:56.847Z,930.42
2019-02-22T07:13:55.452Z,930.44
2019-02-22T07:14:55.385Z,930.41
2019-02-22T07:15:55.338Z,930.46
2019-02-22T07:16:55.292Z,930.43
2019-02-22T07:17:55.234Z,930.37
2019-02-22T07:18:55.210Z,930.36
2019-02-22T07:19:55.143Z,930.34
2019-02-22T07:20:55.097Z,930.37
2019-02-22T07:21:55.096Z,930.42
2019-02-22T07:22:55.017Z,930.44
2019-02-22T07:23:54.992Z,930.49
2019-02-22T07:24:54.913Z,930.52
2019-02-22T07:25:54.868Z,930.52
2019-02-22T07:26:54.837Z,930.55
2019-02-22T07:27:54.810Z,930.57
2019-02-22T07:28:54.762Z,930.55
2019-02-22T07:29:54.696Z,930.60
2019-02-22T07:30:54.650Z,930.59
2019-02-22T07:32:05.356Z,930.60
2019-02-22T07:32:54.594Z,930.65
2019-02-22T07:33:54.510Z,930.65
2019-02-22T07:34:54.455Z,930.63
2019-02-22T07:35:54.410Z,930.69
2019-02-22T07:36:54.396Z,930.68
2019-02-22T07:37:54.338Z,930.71
2019-02-22T07:38:54.304Z,930.68
2019-02-22T07:39:54.262Z,930.65
2019-02-22T07:40:54.180Z,930.68
2019-02-22T07:41:54.215Z,930.67
2019-02-22T07:42:54.101Z,930.66
2019-02-22T07:43:54.075Z,930.66
2019-02-22T07:44:54.018Z,930.67
2019-02-22T07:45:53.973Z,930.68
2019-02-22T07:46:53.938Z,930.66
2019-02-22T07:47:53.911Z,930.68
2019-02-22T07:48:53.814Z,930.63
2019-02-22T07:49:53.780Z,930.68
2019-02-22T07:50:57.543Z,930.66
2019-02-22T07:51:53.697Z,930.66
2019-02-22T07:52:53.665Z,930.68
2019-02-22T07:53:53.596Z,930.65
2019-02-22T07:54:53.551Z,930.66
2019-02-22T07:55:53.494Z,930.69
2019-02-22T07:56:53.471Z,930.67
2019-02-22T07:57:53.423Z,930.70
2019-02-22T07:58:53.357Z,930.67
2019-02-22T07:59:53.331Z,930.63
2019-02-22T08:00:53.296Z,930.69
2019-02-22T08:01:53.243Z,930.65
2019-02-22T08:02:53.186Z,930.67
2019-02-22T08:03:53.149Z,930.69
2019-02-22T08:04:53.082Z,930.71
2019-02-22T08:05:53.036Z,930.74
2019-02-22T08:06:52.991Z,930.76
2019-02-22T08:07:52.977Z,930.78
2019-02-22T08:08:52.920Z,930.80
2019-02-22T08:09:52.854Z,930.82
2019-02-22T08:10:52.819Z,930.83
2019-02-22T08:11:52.825Z,930.83
2019-02-22T08:12:52.728Z,930.85
2019-02-22T08:13:52.691Z,930.86
2019-02-22T08:14:52.625Z,930.88
2019-02-22T08:15:52.592Z,930.85
2019-02-22T08:16:52.533Z,930.86
2019-02-22T08:17:52.500Z,930.87
2019-02-22T08:19:01.095Z,930.85
2019-02-22T08:19:52.397Z,930.81
2019-02-22T08:20:52.382Z,930.82
2019-02-22T08:21:52.325Z,930.85
2019-02-22T08:22:52.272Z,930.85
2019-02-22T08:23:52.245Z,930.87
2019-02-22T08:24:52.170Z,930.87
2019-02-22T08:25:52.154Z,930.85
2019-02-22T08:26:52.099Z,930.85
2019-02-22T08:27:54.141Z,930.84
2019-02-22T08:28:52.005Z,930.86
2019-02-22T08:29:51.939Z,930.84
2019-02-22T08:30:51.925Z,930.88
2019-02-22T08:31:51.859Z,930.85
2019-02-22T08:32:51.814Z,930.89
2019-02-22T08:33:51.798Z,930.84
2019-02-22T08:34:51.732Z,930.89
2019-02-22T08:35:51.666Z,930.90
2019-02-22T08:36:51.639Z,930.93
2019-02-22T08:37:51.605Z,930.94
2019-02-22T08:38:51.541Z,930.98
2019-02-22T08:39:58.533Z,930.95
2019-02-22T08:40:51.456Z,931.02
2019-02-22T08:41:51.400Z,931.06
2019-02-22T08:42:51.349Z,931.05
2019-02-22T08:43:51.331Z,931.09
2019-02-22T08:44:51.264Z,931.07
2019-02-22T08:45:51.238Z,931.08
2019-02-22T08:46:51.186Z,931.08
2019-02-22T08:47:51.115Z,931.14
2019-02-22T08:48:51.102Z,931.09
2019-02-22T08:49:51.044Z,931.09
2019-02-22T08:50:51.000Z,931.06
2019-02-22T08:51:50.953Z,931.07
2019-02-22T08:52:50.935Z,931.10
2019-02-22T08:53:50.841Z,931.08
2019-02-22T08:54:50.816Z,931.11
2019-02-22T08:55:50.770Z,931.14
2019-02-22T08:56:50.735Z,931.11
2019-02-22T08:57:50.667Z,931.15
2019-02-22T08:58:50.633Z,931.18
2019-02-22T08:59:50.566Z,931.18
2019-02-22T09:00:50.521Z,931.21
2019-02-22T09:01:50.507Z,931.25
2019-02-22T09:02:50.482Z,931.22
2019-02-22T09:03:51.335Z,931.21
2019-02-22T09:04:50.363Z,931.28
2019-02-22T09:05:50.292Z,931.29
2019-02-22T09:06:52.357Z,931.30
2019-02-22T09:07:50.221Z,931.32
2019-02-22T09:08:50.175Z,931.29
2019-02-22T09:09:50.122Z,931.34
2019-02-22T09:11:00.244Z,931.30
2019-02-22T09:11:50.041Z,931.33
2019-02-22T09:12:50.005Z,931.30
2019-02-22T09:13:49.946Z,931.34
2019-02-22T09:14:49.905Z,931.35
2019-02-22T09:15:49.848Z,931.37
2019-02-22T09:16:49.810Z,931.39
2019-02-22T09:17:49.756Z,931.40
2019-02-22T09:18:49.697Z,931.42
2019-02-22T09:19:49.653Z,931.43
2019-02-22T09:20:49.641Z,931.48
2019-02-22T09:21:49.586Z,931.51
2019-02-22T09:22:49.546Z,931.51
2019-02-22T09:23:49.480Z,931.52
2019-02-22T09:24:49.435Z,931.53
2019-02-22T09:25:49.397Z,931.56
2019-02-22T09:26:49.346Z,931.59
2019-02-22T09:27:49.613Z,931.58
2019-02-22T09:28:49.271Z,931.56
2019-02-22T09:29:58.442Z,931.60
2019-02-22T09:30:49.174Z,931.62
2019-02-22T09:31:49.135Z,931.63
2019-02-22T09:32:49.091Z,931.64
2019-02-22T09:33:49.040Z,931.68
2019-02-22T09:34:48.979Z,931.67
2019-02-22T09:35:48.947Z,931.75
2019-02-22T09:36:48.908Z,931.76
2019-02-22T09:37:49.085Z,931.77
2019-02-22T09:38:48.785Z,931.79
2019-02-22T09:39:49.051Z,931.83
2019-02-22T09:40:48.718Z,931.82
2019-02-22T09:41:48.659Z,931.84
2019-02-22T09:42:48.630Z,931.85
2019-02-22T09:43:55.389Z,931.88
2019-02-22T09:44:48.522Z,931.89
2019-02-22T09:45:48.504Z,931.89
2019-02-22T09:46:48.422Z,931.87
2019-02-22T09:47:48.395Z,931.90
2019-02-22T09:48:48.391Z,931.92
2019-02-22T09:49:48.296Z,931.98
2019-02-22T09:50:48.252Z,932.01
2019-02-22T09:51:48.264Z,931.98
2019-02-22T09:52:48.180Z,932.01
2019-02-22T09:53:48.122Z,931.99
2019-02-22T09:54:48.071Z,931.99
2019-02-22T09:55:48.105Z,932.00
2019-02-22T09:56:47.979Z,932.03
2019-02-22T09:57:47.938Z,932.09
2019-02-22T09:58:48.058Z,932.10
2019-02-22T09:59:47.886Z,932.13
2019-02-22T10:00:47.801Z,932.10
2019-02-22T10:01:48.038Z,932.14
2019-02-22T10:02:47.719Z,932.10
2019-02-22T10:03:47.685Z,932.14
2019-02-22T10:04:54.997Z,932.14
2019-02-22T10:05:47.563Z,932.16
2019-02-22T10:06:47.515Z,932.22
2019-02-22T10:07:47.468Z,932.27
2019-02-22T10:08:47.453Z,932.21
2019-02-22T10:09:47.410Z,932.27
2019-02-22T10:10:47.346Z,932.24
2019-02-22T10:11:47.297Z,932.27
2019-02-22T10:12:47.282Z,932.27
2019-02-22T10:13:47.205Z,932.62
2019-02-22T10:14:47.182Z,932.81
2019-02-22T10:15:47.116Z,932.40
2019-02-22T10:16:47.147Z,932.33
2019-02-22T10:17:47.046Z,932.25
2019-02-22T10:18:47.064Z,932.23
2019-02-22T10:19:47.026Z,932.28
2019-02-22T10:20:46.913Z,932.30
2019-02-22T10:21:46.836Z,932.35
2019-02-22T10:22:46.822Z,932.35
2019-02-22T10:23:47.103Z,932.42
2019-02-22T10:24:46.702Z,932.40
2019-02-22T10:25:46.656Z,932.44
2019-02-22T10:26:46.614Z,932.48
2019-02-22T10:27:46.577Z,932.84
2019-02-22T10:28:46.555Z,932.58
2019-02-22T10:29:46.479Z,932.58
2019-02-22T10:30:46.444Z,932.79
2019-02-22T10:31:46.420Z,932.98
2019-02-22T10:32:46.355Z,933.36
2019-02-22T10:33:46.320Z,932.82
2019-02-22T10:34:46.282Z,932.93
2019-02-22T10:35:46.231Z,933.11
2019-02-22T10:36:46.184Z,932.76
2019-02-22T10:37:46.136Z,932.61
2019-02-22T10:38:46.103Z,932.69
2019-02-22T10:39:46.072Z,932.66
2019-02-22T10:40:45.998Z,933.34
2019-02-22T10:41:45.958Z,933.27
2019-02-22T10:42:45.923Z,933.22
2019-02-22T10:43:45.899Z,933.41
2019-02-22T10:44:45.826Z,933.52
2019-02-22T10:45:45.814Z,933.91
2019-02-22T10:46:45.740Z,933.78
2019-02-22T10:47:45.731Z,932.66
2019-02-22T10:48:45.690Z,933.51
2019-02-22T10:49:45.648Z,933.22
2019-02-22T10:50:45.622Z,933.96
2019-02-22T10:51:45.546Z,933.27
2019-02-22T10:52:45.492Z,934.59
2019-02-22T10:53:45.462Z,933.81
2019-02-22T10:54:45.428Z,935.16
2019-02-22T10:55:45.395Z,935.02
2019-02-22T10:56:45.330Z,934.64
2019-02-22T10:57:45.322Z,934.78
2019-02-22T10:58:45.283Z,934.16
2019-02-22T10:59:45.221Z,933.44
2019-02-22T11:00:45.185Z,933.17
2019-02-22T11:01:45.175Z,932.83
2019-02-22T11:02:45.110Z,932.80
2019-02-22T11:03:45.063Z,932.72
2019-02-22T11:04:45.031Z,932.74
2019-02-22T11:05:44.981Z,932.82
2019-02-22T11:06:44.957Z,932.84
2019-02-22T11:07:44.915Z,932.89
2019-02-22T11:08:44.891Z,932.87
2019-02-22T11:09:44.812Z,932.83
2019-02-22T11:10:44.807Z,932.83
2019-02-22T11:11:44.752Z,932.84
2019-02-22T11:12:44.701Z,932.76
2019-02-22T11:13:44.680Z,932.73
2019-02-22T11:14:44.629Z,932.79
2019-02-22T11:15:44.579Z,932.80
2019-02-22T11:16:44.546Z,932.86
2019-02-22T11:17:44.483Z,932.92
2019-02-22T11:18:44.442Z,932.92
2019-02-22T11:19:44.413Z,932.94
2019-02-22T11:20:44.377Z,932.95
2019-02-22T11:21:44.349Z,932.92
2019-02-22T11:22:44.306Z,932.91
2019-02-22T11:23:44.252Z,932.95
2019-02-22T11:24:44.205Z,932.90
2019-02-22T11:25:44.181Z,932.97
2019-02-22T11:26:44.105Z,932.97
2019-02-22T11:27:44.083Z,932.93
2019-02-22T11:28:44.033Z,932.94
2019-02-22T11:29:43.982Z,932.95
2019-02-22T11:30:43.968Z,932.94
2019-02-22T11:31:43.916Z,932.87
2019-02-22T11:32:43.853Z,932.94
2019-02-22T11:33:43.843Z,932.93
2019-02-22T11:34:43.786Z,932.98
2019-02-22T11:35:43.758Z,932.98
2019-02-22T11:36:43.872Z,933.01
2019-02-22T11:37:43.661Z,933.03
2019-02-22T11:38:43.609Z,933.01
2019-02-22T11:39:43.566Z,932.96
2019-02-22T11:40:43.526Z,932.98
2019-02-22T11:41:43.483Z,933.06
2019-02-22T11:42:43.451Z,933.07
2019-02-22T11:43:43.393Z,933.03
2019-02-22T11:44:43.359Z,933.04
2019-02-22T11:45:43.312Z,933.00
2019-02-22T11:46:43.267Z,933.02
2019-02-22T11:47:43.227Z,933.06
2019-02-22T11:48:43.184Z,933.11
2019-02-22T11:49:43.181Z,933.02
2019-02-22T11:50:43.097Z,933.08
2019-02-22T11:51:43.061Z,933.11
2019-02-22T11:52:43.018Z,933.10
2019-02-22T11:53:42.978Z,933.10
2019-02-22T11:54:42.930Z,933.12
2019-02-22T11:55:42.890Z,933.11
2019-02-22T11:56:42.843Z,933.06
2019-02-22T11:57:42.802Z,933.12
2019-02-22T11:58:42.768Z,933.11
2019-02-22T11:59:42.720Z,933.11
2019-02-22T12:00:42.675Z,933.15
2019-02-22T12:01:42.642Z,933.15
2019-02-22T12:02:45.121Z,933.15
2019-02-22T12:03:42.545Z,933.15
2019-02-22T12:04:42.500Z,933.08
2019-02-22T12:05:42.463Z,933.14
2019-02-22T12:06:42.419Z,933.13
2019-02-22T12:07:42.382Z,933.15
2019-02-22T12:08:42.339Z,933.13
2019-02-22T12:09:42.290Z,933.07
2019-02-22T12:10:42.252Z,933.08
2019-02-22T12:11:42.411Z,933.11
2019-02-22T12:12:42.165Z,933.13
2019-02-22T12:13:42.124Z,933.10
2019-02-22T12:14:51.080Z,933.13
2019-02-22T12:15:42.042Z,933.19
2019-02-22T12:16:41.997Z,933.19
2019-02-22T12:17:42.160Z,933.19
2019-02-22T12:18:41.910Z,933.18
2019-02-22T12:19:41.869Z,933.19
2019-02-22T12:20:41.823Z,933.18
2019-02-22T12:21:41.784Z,933.22
2019-02-22T12:22:41.752Z,933.19
2019-02-22T12:23:41.899Z,933.17
2019-02-22T12:24:41.654Z,933.17
2019-02-22T12:25:41.610Z,933.21
2019-02-22T12:26:41.571Z,933.26
2019-02-22T12:27:41.529Z,933.27